createdAt,value
2023-05-12T00:00:41.865Z,10.10
2023-05-12T00:03:08.551Z,10.30
2023-05-12T00:05:35.499Z,10.30
2023-05-12T00:08:02.107Z,10.30
2023-05-12T00:10:28.831Z,10.30
2023-05-12T00:12:58.160Z,10.30
2023-05-12T00:15:24.809Z,10.30
2023-05-12T00:17:52.400Z,10.40
2023-05-12T00:20:19.467Z,10.40
2023-05-12T00:22:46.333Z,10.40
2023-05-12T00:25:12.948Z,10.50
2023-05-12T00:27:39.545Z,10.50
2023-05-12T00:30:06.981Z,10.50
2023-05-12T00:32:33.641Z,10.50
2023-05-12T00:35:00.283Z,10.60
2023-05-12T00:37:26.934Z,10.50
2023-05-12T00:39:53.551Z,10.50
2023-05-12T00:42:20.167Z,10.50
2023-05-12T00:44:47.801Z,10.50
2023-05-12T00:47:14.570Z,10.50
2023-05-12T00:49:44.259Z,10.60
2023-05-12T00:52:10.910Z,10.50
2023-05-12T00:54:38.462Z,10.60
2023-05-12T00:57:05.260Z,10.50
2023-05-12T00:59:32.008Z,10.70
2023-05-12T01:01:59.523Z,10.70
2023-05-12T01:04:26.247Z,10.70
2023-05-12T01:07:02.197Z,10.70
2023-05-12T01:09:28.787Z,10.60
2023-05-12T01:11:55.575Z,10.60
2023-05-12T01:14:22.196Z,10.50
2023-05-12T01:16:52.807Z,10.60
2023-05-12T01:19:37.991Z,10.60
2023-05-12T01:22:04.993Z,10.50
2023-05-12T01:24:32.305Z,10.50
2023-05-12T01:27:00.137Z,10.40
2023-05-12T01:29:27.304Z,10.40
2023-05-12T01:31:54.307Z,10.40
2023-05-12T01:34:21.008Z,10.40
2023-05-12T01:36:47.589Z,10.30
2023-05-12T01:39:14.240Z,10.30
2023-05-12T01:41:41.047Z,10.30
2023-05-12T01:44:07.889Z,10.20
2023-05-12T01:46:34.679Z,10.20
2023-05-12T01:49:01.582Z,10.10
2023-05-12T01:51:28.184Z,10.10
2023-05-12T01:53:54.881Z,10.00
2023-05-12T01:56:21.901Z,10.00
2023-05-12T01:58:48.776Z,10.00
2023-05-12T02:01:15.534Z,9.90
2023-05-12T02:03:42.437Z,9.90
2023-05-12T02:06:09.197Z,9.90
2023-05-12T02:08:36.112Z,9.80
2023-05-12T02:11:06.456Z,9.70
2023-05-12T02:13:33.209Z,9.70
2023-05-12T02:16:00.074Z,9.60
2023-05-12T02:18:26.752Z,9.60
2023-05-12T02:20:53.776Z,9.60
2023-05-12T02:23:20.490Z,9.50
2023-05-12T02:25:47.141Z,9.40
2023-05-12T02:28:13.734Z,9.30
2023-05-12T02:30:45.069Z,9.20
2023-05-12T02:33:11.893Z,9.10
2023-05-12T02:35:38.679Z,9.10
2023-05-12T02:38:05.186Z,9.20
2023-05-12T02:40:31.681Z,9.10
2023-05-12T02:42:58.217Z,9.00
2023-05-12T02:45:24.732Z,9.10
2023-05-12T02:47:51.276Z,9.00
2023-05-12T02:50:18.062Z,9.10
2023-05-12T02:52:44.638Z,9.20
2023-05-12T02:55:11.143Z,9.10
2023-05-12T02:57:37.668Z,9.10
2023-05-12T03:00:07.797Z,9.00
2023-05-12T03:02:34.919Z,9.00
2023-05-12T03:05:03.016Z,9.00
2023-05-12T03:07:29.613Z,9.00
2023-05-12T03:09:56.281Z,9.00
2023-05-12T03:12:22.794Z,9.00
2023-05-12T03:14:49.328Z,9.10
2023-05-12T03:17:15.885Z,9.10
2023-05-12T03:19:42.506Z,9.10
2023-05-12T03:22:09.385Z,9.00
2023-05-12T03:24:36.647Z,9.00
2023-05-12T03:27:03.413Z,9.00
2023-05-12T03:29:29.913Z,8.90
2023-05-12T03:31:56.424Z,8.90
2023-05-12T03:34:22.915Z,8.90
2023-05-12T03:36:49.432Z,9.00
2023-05-12T03:39:16.306Z,9.00
2023-05-12T03:41:43.514Z,9.00
2023-05-12T03:44:11.103Z,9.00
2023-05-12T03:46:37.827Z,9.00
2023-05-12T03:49:04.518Z,9.10
2023-05-12T03:51:31.234Z,9.30
2023-05-12T03:53:57.751Z,9.30
2023-05-12T03:56:24.464Z,9.30
2023-05-12T03:58:51.064Z,9.30
2023-05-12T04:01:18.076Z,9.30
2023-05-12T04:03:44.689Z,9.40
2023-05-12T04:06:11.802Z,9.40
2023-05-12T04:08:41.085Z,9.50
2023-05-12T04:11:09.384Z,9.50
2023-05-12T04:13:35.971Z,9.60
2023-05-12T04:16:02.495Z,9.60
2023-05-12T04:18:29.148Z,9.60
2023-05-12T04:20:56.212Z,9.60
2023-05-12T04:23:23.050Z,9.60
2023-05-12T04:25:49.593Z,9.70
2023-05-12T04:28:16.186Z,9.70
2023-05-12T04:30:42.939Z,9.70
2023-05-12T04:33:09.951Z,9.70
2023-05-12T04:35:36.584Z,9.80
2023-05-12T04:38:03.388Z,9.80
2023-05-12T04:40:31.599Z,9.90
2023-05-12T04:42:59.968Z,9.80
2023-05-12T04:45:26.576Z,9.90
2023-05-12T04:47:53.141Z,10.00
2023-05-12T04:50:19.701Z,10.10
2023-05-12T04:52:46.265Z,10.00
2023-05-12T04:55:12.781Z,10.10
2023-05-12T04:57:41.270Z,10.20
2023-05-12T05:00:09.040Z,10.20
2023-05-12T05:02:35.793Z,10.30
2023-05-12T05:05:02.677Z,10.50
2023-05-12T05:07:29.189Z,10.50
2023-05-12T05:09:55.712Z,10.50
2023-05-12T05:12:22.242Z,10.60
2023-05-12T05:14:48.904Z,10.70
2023-05-12T05:17:15.470Z,10.80
2023-05-12T05:19:54.852Z,10.90
2023-05-12T05:22:24.622Z,10.90
2023-05-12T05:24:51.775Z,11.10
2023-05-12T05:27:18.370Z,11.20
2023-05-12T05:29:44.921Z,11.30
2023-05-12T05:32:11.466Z,11.30
2023-05-12T05:34:38.239Z,11.30
2023-05-12T05:37:04.998Z,11.30
2023-05-12T05:39:31.732Z,11.30
2023-05-12T05:41:58.255Z,11.40
2023-05-12T05:44:25.135Z,11.40
2023-05-12T05:46:52.115Z,11.50
2023-05-12T05:49:18.744Z,11.50
2023-05-12T05:51:45.274Z,11.50
2023-05-12T05:54:12.130Z,11.60
2023-05-12T05:56:38.707Z,11.60
2023-05-12T05:59:05.484Z,11.70
2023-05-12T06:01:32.368Z,11.80
2023-05-12T06:03:59.289Z,11.80
2023-05-12T06:06:25.956Z,12.00
2023-05-12T06:08:52.572Z,12.10
2023-05-12T06:11:19.096Z,12.20
2023-05-12T06:13:45.658Z,12.30
2023-05-12T06:16:12.259Z,12.40
2023-05-12T06:18:38.881Z,12.60
2023-05-12T06:21:05.625Z,12.70
2023-05-12T06:23:32.446Z,12.70
2023-05-12T06:25:59.030Z,12.80
2023-05-12T06:28:25.570Z,12.80
2023-05-12T06:30:52.152Z,13.00
2023-05-12T06:33:18.716Z,13.20
2023-05-12T06:35:45.296Z,13.20
2023-05-12T06:38:11.831Z,13.20
2023-05-12T06:40:38.340Z,13.20
2023-05-12T06:43:04.922Z,13.30
2023-05-12T06:45:31.598Z,13.30
2023-05-12T06:47:58.282Z,13.40
2023-05-12T06:50:24.853Z,13.50
2023-05-12T06:52:51.546Z,13.60
2023-05-12T06:55:20.716Z,13.70
2023-05-12T06:57:47.764Z,13.70
2023-05-12T07:00:14.693Z,13.80
2023-05-12T07:02:41.797Z,13.80
2023-05-12T07:05:08.735Z,13.90
2023-05-12T07:07:35.973Z,14.00
2023-05-12T07:10:02.494Z,14.10
2023-05-12T07:12:29.233Z,14.10
2023-05-12T07:14:55.774Z,14.20
2023-05-12T07:17:22.355Z,14.20
2023-05-12T07:19:48.933Z,14.30
2023-05-12T07:22:15.511Z,14.40
2023-05-12T07:24:42.141Z,14.50
2023-05-12T07:27:08.720Z,14.70
2023-05-12T07:29:35.283Z,14.80
2023-05-12T07:32:01.826Z,14.90
2023-05-12T07:34:28.312Z,14.90
2023-05-12T07:36:54.860Z,15.10
2023-05-12T07:39:23.763Z,15.20
2023-05-12T07:41:50.818Z,15.30
2023-05-12T07:44:17.347Z,15.40
2023-05-12T07:46:43.935Z,15.50
2023-05-12T07:49:10.483Z,15.50
2023-05-12T07:51:37.091Z,15.60
2023-05-12T07:54:04.766Z,15.70
2023-05-12T07:56:31.355Z,15.80
2023-05-12T07:58:57.901Z,15.90
2023-05-12T08:01:24.700Z,15.90
2023-05-12T08:03:51.382Z,16.00
2023-05-12T08:06:18.531Z,16.00
2023-05-12T08:08:45.200Z,16.00
2023-05-12T08:11:12.682Z,16.10
2023-05-12T08:13:39.374Z,16.20
2023-05-12T08:16:06.242Z,16.20
2023-05-12T08:18:32.847Z,16.30
2023-05-12T08:20:59.403Z,16.30
2023-05-12T08:23:25.950Z,16.40
2023-05-12T08:25:52.470Z,16.50
2023-05-12T08:28:19.115Z,16.50
2023-05-12T08:30:45.843Z,16.50
2023-05-12T08:33:12.756Z,16.60
2023-05-12T08:35:39.386Z,16.60
2023-05-12T08:38:06.211Z,16.70
2023-05-12T08:40:34.517Z,16.70
2023-05-12T08:43:15.191Z,16.80
2023-05-12T08:45:41.746Z,16.70
2023-05-12T08:48:13.449Z,16.70
2023-05-12T08:50:40.906Z,16.60
2023-05-12T08:53:08.375Z,16.50
2023-05-12T08:55:35.173Z,16.60
2023-05-12T08:58:02.929Z,16.50
2023-05-12T09:00:31.106Z,16.50
2023-05-12T09:02:59.277Z,16.60
2023-05-12T09:05:27.071Z,16.60
2023-05-12T09:07:55.025Z,16.70
2023-05-12T09:10:34.213Z,16.80
2023-05-12T09:13:10.013Z,16.90
2023-05-12T09:15:39.197Z,16.90
2023-05-12T09:18:05.948Z,16.90
2023-05-12T09:20:32.710Z,17.10
2023-05-12T09:23:00.109Z,17.10
2023-05-12T09:25:26.704Z,17.40
2023-05-12T09:27:59.158Z,17.40
2023-05-12T09:30:29.749Z,17.50
2023-05-12T09:33:25.866Z,17.50
2023-05-12T09:35:53.090Z,17.50
2023-05-12T09:38:19.608Z,17.40
2023-05-12T09:40:46.137Z,17.40
2023-05-12T09:43:15.414Z,17.30
2023-05-12T09:45:43.865Z,17.20
2023-05-12T09:48:11.448Z,17.20
2023-05-12T09:50:48.569Z,17.20
2023-05-12T09:53:17.312Z,17.30
2023-05-12T09:55:44.635Z,17.30
2023-05-12T09:58:11.304Z,17.40
2023-05-12T10:00:58.476Z,17.50
2023-05-12T10:03:26.497Z,17.60
2023-05-12T10:05:54.746Z,17.70
2023-05-12T10:08:27.138Z,17.70
2023-05-12T10:10:54.162Z,17.70
2023-05-12T10:13:21.121Z,17.70
2023-05-12T10:15:48.285Z,17.80
2023-05-12T10:18:15.741Z,17.70
2023-05-12T10:20:43.981Z,17.70
2023-05-12T10:23:12.597Z,17.70
2023-05-12T10:25:41.018Z,17.90
2023-05-12T10:28:08.192Z,18.00
2023-05-12T10:30:35.295Z,18.00
2023-05-12T10:33:03.337Z,18.10
2023-05-12T10:35:36.440Z,18.10
2023-05-12T10:38:13.581Z,18.00
2023-05-12T10:40:51.016Z,18.10
2023-05-12T10:43:24.572Z,18.10
2023-05-12T10:46:10.219Z,18.30
2023-05-12T10:48:38.516Z,18.40
2023-05-12T10:51:08.701Z,18.50
2023-05-12T10:53:48.231Z,18.50
2023-05-12T10:56:26.598Z,18.60
2023-05-12T10:59:17.248Z,18.60
2023-05-12T11:02:05.390Z,18.70
2023-05-12T11:04:42.929Z,18.70
2023-05-12T11:07:11.795Z,18.80
2023-05-12T11:09:56.105Z,18.90
2023-05-12T11:12:26.652Z,18.90
2023-05-12T11:14:53.222Z,18.90
2023-05-12T11:17:19.756Z,18.90
2023-05-12T11:19:47.958Z,18.90
2023-05-12T11:22:16.629Z,19.00
2023-05-12T11:24:43.125Z,18.90
2023-05-12T11:27:14.214Z,18.80
2023-05-12T11:29:41.577Z,18.60
2023-05-12T11:32:12.455Z,18.60
2023-05-12T11:34:39.060Z,18.40
2023-05-12T11:37:06.672Z,18.40
2023-05-12T11:39:33.298Z,18.50
2023-05-12T11:42:12.158Z,18.60
2023-05-12T11:44:47.154Z,18.60
2023-05-12T11:47:14.286Z,18.70
2023-05-12T11:49:50.910Z,18.80
2023-05-12T11:52:19.345Z,18.90
2023-05-12T11:54:52.960Z,19.00
2023-05-12T11:57:27.355Z,19.00
2023-05-12T12:00:04.685Z,19.20
2023-05-12T12:02:31.518Z,19.40
2023-05-12T12:04:58.405Z,19.50
2023-05-12T12:07:31.965Z,19.40
2023-05-12T12:09:58.787Z,19.40
2023-05-12T12:12:26.362Z,19.50
2023-05-12T12:14:52.996Z,19.40
2023-05-12T12:17:19.478Z,19.50
2023-05-12T12:19:50.821Z,19.50
2023-05-12T12:22:17.479Z,19.50
2023-05-12T12:24:43.990Z,19.50
2023-05-12T12:27:10.549Z,19.50
2023-05-12T12:29:37.056Z,19.50
2023-05-12T12:32:03.644Z,19.50
2023-05-12T12:34:30.156Z,19.40
2023-05-12T12:36:56.771Z,19.30
2023-05-12T12:39:23.362Z,19.30
2023-05-12T12:41:50.181Z,19.20
2023-05-12T12:44:17.638Z,19.10
2023-05-12T12:46:44.409Z,19.10
2023-05-12T12:49:11.285Z,19.10
2023-05-12T12:51:45.563Z,19.10
2023-05-12T12:54:13.518Z,19.20
2023-05-12T12:56:40.046Z,19.20
2023-05-12T12:59:06.586Z,19.20
2023-05-12T13:01:33.852Z,19.20
2023-05-12T13:04:01.508Z,19.00
2023-05-12T13:06:29.265Z,18.90
2023-05-12T13:08:56.397Z,18.90
2023-05-12T13:11:23.030Z,18.90
2023-05-12T13:13:49.547Z,18.80
2023-05-12T13:16:16.165Z,18.70
2023-05-12T13:18:42.795Z,18.80
2023-05-12T13:21:09.396Z,18.90
2023-05-12T13:23:35.920Z,18.80
2023-05-12T13:26:02.450Z,18.80
2023-05-12T13:28:28.963Z,18.80
2023-05-12T13:30:55.501Z,18.90
2023-05-12T13:33:22.056Z,18.90
2023-05-12T13:35:48.562Z,19.00
2023-05-12T13:38:15.165Z,18.90
2023-05-12T13:40:41.751Z,19.00
2023-05-12T13:43:08.428Z,19.10
2023-05-12T13:45:34.966Z,19.20
2023-05-12T13:48:01.551Z,19.20
2023-05-12T13:50:28.088Z,19.10
2023-05-12T13:52:54.602Z,19.00
2023-05-12T13:55:21.884Z,19.00
2023-05-12T13:57:48.882Z,19.00
2023-05-12T14:00:17.205Z,19.20
2023-05-12T14:02:44.049Z,19.20
2023-05-12T14:05:10.704Z,19.30
2023-05-12T14:07:37.596Z,19.20
2023-05-12T14:10:04.164Z,19.30
2023-05-12T14:12:31.077Z,19.20
2023-05-12T14:15:07.339Z,19.10
2023-05-12T14:17:44.431Z,19.20
2023-05-12T14:20:11.632Z,19.20
2023-05-12T14:22:38.152Z,19.20
2023-05-12T14:25:04.868Z,19.20
2023-05-12T14:27:31.367Z,19.10
2023-05-12T14:29:57.936Z,19.10
2023-05-12T14:32:24.569Z,19.00
2023-05-12T14:34:51.122Z,19.00
2023-05-12T14:37:17.700Z,19.00
2023-05-12T14:39:44.313Z,19.00
2023-05-12T14:42:10.860Z,19.00
2023-05-12T14:44:37.547Z,18.90
2023-05-12T14:47:04.139Z,18.90
2023-05-12T14:49:31.043Z,18.80
2023-05-12T14:51:57.609Z,18.80
2023-05-12T14:54:25.985Z,18.90
2023-05-12T14:56:52.994Z,19.10
2023-05-12T14:59:19.675Z,19.20
2023-05-12T15:01:46.456Z,19.20
2023-05-12T15:04:13.436Z,19.20
2023-05-12T15:06:40.108Z,19.20
2023-05-12T15:09:07.269Z,19.20
2023-05-12T15:11:33.813Z,19.10
2023-05-12T15:14:00.373Z,19.10
2023-05-12T15:16:27.960Z,19.20
2023-05-12T15:18:54.724Z,19.20
2023-05-12T15:21:21.613Z,19.20
2023-05-12T15:23:48.170Z,19.20
2023-05-12T15:26:32.038Z,19.30
2023-05-12T15:28:59.917Z,19.40
2023-05-12T15:31:28.229Z,19.60
2023-05-12T15:33:56.001Z,19.70
2023-05-12T15:36:22.693Z,19.80
2023-05-12T15:38:49.307Z,19.90
2023-05-12T15:41:15.816Z,19.80
2023-05-12T15:43:42.407Z,19.70
2023-05-12T15:46:10.610Z,19.70
2023-05-12T15:48:37.684Z,19.60
2023-05-12T15:51:04.323Z,19.30
2023-05-12T15:53:31.105Z,19.10
2023-05-12T15:56:04.070Z,18.80
2023-05-12T15:58:31.242Z,18.60
2023-05-12T16:00:57.837Z,18.30
2023-05-12T16:03:24.473Z,18.10
2023-05-12T16:05:51.142Z,17.90
2023-05-12T16:08:17.809Z,17.50
2023-05-12T16:10:44.397Z,17.10
2023-05-12T16:13:11.022Z,16.90
2023-05-12T16:15:37.627Z,16.70
2023-05-12T16:18:05.861Z,16.50
2023-05-12T16:20:33.664Z,16.30
2023-05-12T16:23:00.281Z,16.20
2023-05-12T16:25:26.808Z,16.00
2023-05-12T16:27:53.488Z,15.90
2023-05-12T16:30:20.567Z,15.90
2023-05-12T16:32:47.498Z,15.80
2023-05-12T16:35:14.182Z,15.70
2023-05-12T16:37:41.166Z,15.70
2023-05-12T16:40:07.937Z,15.60
2023-05-12T16:42:34.607Z,15.70
2023-05-12T16:45:01.150Z,15.70
2023-05-12T16:47:29.411Z,15.80
2023-05-12T16:49:57.991Z,15.80
2023-05-12T16:52:25.247Z,15.80
2023-05-12T16:54:51.869Z,15.90
2023-05-12T16:57:18.928Z,15.90
2023-05-12T16:59:45.601Z,15.90
2023-05-12T17:02:12.204Z,15.80
2023-05-12T17:04:39.651Z,15.70
2023-05-12T17:07:07.984Z,15.70
2023-05-12T17:09:34.513Z,15.70
2023-05-12T17:12:01.608Z,15.50
2023-05-12T17:14:28.254Z,15.50
2023-05-12T17:16:54.844Z,15.40
2023-05-12T17:19:22.083Z,15.50
2023-05-12T17:21:48.877Z,15.40
2023-05-12T17:24:15.503Z,15.50
2023-05-12T17:26:42.196Z,15.50
2023-05-12T17:29:08.956Z,15.40
2023-05-12T17:31:36.455Z,15.40
2023-05-12T17:34:03.210Z,15.40
2023-05-12T17:36:29.958Z,15.50
2023-05-12T17:38:56.812Z,15.50
2023-05-12T17:41:23.336Z,15.50
2023-05-12T17:43:49.867Z,15.60
2023-05-12T17:46:16.640Z,15.60
2023-05-12T17:48:43.244Z,15.60
2023-05-12T17:51:09.875Z,15.60
2023-05-12T17:53:36.534Z,15.50
2023-05-12T17:56:03.191Z,15.50
2023-05-12T17:58:29.703Z,15.40
2023-05-12T18:00:56.762Z,15.40
2023-05-12T18:03:23.852Z,15.40
2023-05-12T18:05:51.367Z,15.30
2023-05-12T18:08:17.932Z,15.20
2023-05-12T18:10:44.590Z,15.10
2023-05-12T18:13:11.323Z,15.10
2023-05-12T18:15:38.278Z,15.00
2023-05-12T18:18:05.113Z,14.90
2023-05-12T18:20:31.666Z,14.80
2023-05-12T18:22:58.201Z,14.80
2023-05-12T18:25:24.793Z,14.80
2023-05-12T18:27:52.058Z,14.80
2023-05-12T18:30:18.768Z,14.80
2023-05-12T18:32:45.335Z,14.80
2023-05-12T18:35:12.238Z,14.80
2023-05-12T18:37:38.753Z,14.80
2023-05-12T18:40:06.806Z,14.70
2023-05-12T18:42:34.047Z,14.70
2023-05-12T18:45:00.592Z,14.70
2023-05-12T18:47:27.172Z,14.60
2023-05-12T18:49:53.731Z,14.60
2023-05-12T18:52:21.250Z,14.60
2023-05-12T18:54:49.675Z,14.60
2023-05-12T18:57:16.905Z,14.50
2023-05-12T18:59:43.512Z,14.40
2023-05-12T19:02:10.469Z,14.40
2023-05-12T19:04:37.438Z,14.30
2023-05-12T19:07:06.389Z,14.20
2023-05-12T19:09:32.930Z,14.10
2023-05-12T19:11:59.567Z,14.00
2023-05-12T19:14:26.700Z,13.90
2023-05-12T19:16:53.239Z,13.80
2023-05-12T19:19:19.957Z,13.80
2023-05-12T19:21:46.548Z,13.70
2023-05-12T19:24:13.548Z,13.70
2023-05-12T19:26:40.113Z,13.70
2023-05-12T19:29:07.125Z,13.60
2023-05-12T19:31:34.414Z,13.60
2023-05-12T19:34:03.716Z,13.60
2023-05-12T19:36:30.512Z,13.60
2023-05-12T19:38:59.562Z,13.60
2023-05-12T19:41:27.785Z,13.50
2023-05-12T19:43:54.637Z,13.50
2023-05-12T19:46:21.661Z,13.50
2023-05-12T19:48:48.369Z,13.50
2023-05-12T19:51:14.896Z,13.50
2023-05-12T19:53:43.069Z,13.40
2023-05-12T19:56:09.625Z,13.40
2023-05-12T19:58:36.126Z,13.40
2023-05-12T20:01:02.706Z,13.40
2023-05-12T20:03:29.320Z,13.40
2023-05-12T20:05:56.029Z,13.30
2023-05-12T20:08:22.627Z,13.30
2023-05-12T20:10:49.151Z,13.30
2023-05-12T20:13:15.716Z,13.30
2023-05-12T20:15:44.067Z,13.30
2023-05-12T20:18:12.601Z,13.30
2023-05-12T20:20:39.179Z,13.20
2023-05-12T20:23:05.680Z,13.10
2023-05-12T20:25:33.171Z,13.00
2023-05-12T20:27:59.889Z,13.10
2023-05-12T20:30:26.741Z,13.10
2023-05-12T20:32:53.446Z,13.10
2023-05-12T20:35:20.572Z,13.10
2023-05-12T20:37:47.531Z,13.10
2023-05-12T20:40:14.105Z,13.10
2023-05-12T20:42:40.652Z,13.00
2023-05-12T20:45:07.696Z,13.00
2023-05-12T20:47:34.844Z,12.90
2023-05-12T20:50:05.488Z,12.90
2023-05-12T20:52:33.496Z,12.80
2023-05-12T20:55:00.202Z,12.80
2023-05-12T20:57:27.116Z,12.80
2023-05-12T20:59:56.583Z,12.80
2023-05-12T21:02:24.113Z,12.80
2023-05-12T21:04:50.906Z,12.70
2023-05-12T21:07:17.434Z,12.70
2023-05-12T21:09:44.128Z,12.70
2023-05-12T21:12:10.650Z,12.70
2023-05-12T21:14:38.258Z,12.60
2023-05-12T21:17:04.952Z,12.60
2023-05-12T21:19:31.512Z,12.60
2023-05-12T21:21:58.682Z,12.50
2023-05-12T21:24:25.251Z,12.50
2023-05-12T21:26:51.756Z,12.50
2023-05-12T21:29:18.368Z,12.50
2023-05-12T21:31:44.975Z,12.60
2023-05-12T21:34:11.576Z,12.60
2023-05-12T21:36:38.420Z,12.50
2023-05-12T21:39:05.032Z,12.50
2023-05-12T21:41:31.731Z,12.40
2023-05-12T21:43:58.262Z,12.40
2023-05-12T21:46:24.917Z,12.30
2023-05-12T21:48:51.418Z,12.20
2023-05-12T21:51:17.943Z,12.10
2023-05-12T21:53:44.476Z,12.10
2023-05-12T21:56:11.148Z,12.10
2023-05-12T21:58:37.673Z,12.00
2023-05-12T22:03:55.205Z,11.80
2023-05-12T22:06:21.762Z,11.70
2023-05-12T22:08:48.248Z,11.70
2023-05-12T22:11:14.748Z,11.60
2023-05-12T22:13:41.338Z,11.50
2023-05-12T22:16:07.934Z,11.40
2023-05-12T22:18:35.668Z,11.30
2023-05-12T22:21:02.262Z,11.30
2023-05-12T22:23:28.779Z,11.20
2023-05-12T22:25:55.931Z,11.30
2023-05-12T22:28:22.493Z,11.20
2023-05-12T22:30:48.997Z,11.10
2023-05-12T22:33:15.562Z,11.10
2023-05-12T22:35:42.148Z,11.10
2023-05-12T22:38:08.664Z,11.10
2023-05-12T22:40:36.089Z,11.00
2023-05-12T22:43:02.603Z,11.00
2023-05-12T22:45:29.120Z,10.90
2023-05-12T22:47:55.729Z,10.80
2023-05-12T22:50:22.582Z,10.80
2023-05-12T22:52:49.526Z,10.70
2023-05-12T22:55:16.042Z,10.70
2023-05-12T22:57:43.745Z,10.60
2023-05-12T23:00:10.645Z,10.60
2023-05-12T23:02:37.213Z,10.50
2023-05-12T23:05:04.237Z,10.50
2023-05-12T23:07:31.018Z,10.40
2023-05-12T23:09:57.628Z,10.50
2023-05-12T23:12:24.161Z,10.30
2023-05-12T23:14:50.678Z,10.30
2023-05-12T23:17:17.250Z,10.30
2023-05-12T23:19:44.040Z,10.20
2023-05-12T23:22:10.697Z,10.30
2023-05-12T23:24:38.086Z,10.20
2023-05-12T23:27:06.129Z,10.10
2023-05-12T23:29:34.408Z,10.10
2023-05-12T23:32:00.998Z,10.20
2023-05-12T23:34:27.536Z,10.20
2023-05-12T23:36:54.153Z,10.20
2023-05-12T23:39:20.960Z,10.20
2023-05-12T23:41:47.567Z,10.20
2023-05-12T23:44:14.065Z,10.20
2023-05-12T23:46:40.793Z,10.10
2023-05-12T23:49:07.434Z,10.10
2023-05-12T23:51:34.487Z,10.10
2023-05-12T23:54:01.013Z,10.00
2023-05-12T23:56:27.694Z,10.00
2023-05-12T23:58:54.209Z,10.00
